Time;durP1;ratioP1;P1;durP2;ratioP2;P2;SDS_P1;SDS_P2;PMS_P1;PMS_P2;Temp;Humidity;BMP_temperature;BMP_pressure;BME280_temperature;BME280_humidity;BME280_pressure;Samples;Min_cycle;Max_cycle;Signal;HPM_P1;HPM_P2
2023/09/26 00:00:23;;;;;;;9.75;3.50;;;9.20;99.90;;;;;;4987043;28;20622;-86
2023/09/26 00:02:53;;;;;;;7.65;3.30;;;9.20;99.90;;;;;;4970848;28;20252;-87
2023/09/26 00:05:23;;;;;;;8.13;3.70;;;9.20;99.90;;;;;;4986719;28;20219;-86
2023/09/26 00:07:51;;;;;;;7.40;3.75;;;9.10;99.90;;;;;;4987627;28;20217;-85
2023/09/26 00:10:19;;;;;;;6.85;3.03;;;9.00;99.90;;;;;;4985947;28;20186;-87
2023/09/26 00:12:48;;;;;;;8.25;3.08;;;9.10;99.90;;;;;;4981879;28;20195;-88
2023/09/26 00:15:16;;;;;;;7.82;3.28;;;9.10;99.90;;;;;;4985937;28;20275;-85
2023/09/26 00:17:44;;;;;;;6.57;3.22;;;9.10;99.90;;;;;;4987896;28;20191;-87
2023/09/26 00:20:23;;;;;;;9.00;3.15;;;9.10;99.90;;;;;;4980315;28;20638;-87
2023/09/26 00:22:51;;;;;;;8.57;3.30;;;9.10;99.90;;;;;;4987800;28;20694;-85
2023/09/26 00:25:19;;;;;;;9.02;2.75;;;9.10;99.90;;;;;;4983859;28;20198;-86
2023/09/26 00:27:47;;;;;;;8.10;3.03;;;9.10;99.90;;;;;;4985620;28;20183;-85
2023/09/26 00:30:15;;;;;;;8.48;3.20;;;9.10;99.90;;;;;;4985493;28;20246;-86
2023/09/26 00:32:44;;;;;;;7.30;2.65;;;9.10;99.90;;;;;;4985481;28;20188;-86
2023/09/26 00:35:13;;;;;;;7.25;2.55;;;9.00;99.90;;;;;;4969725;28;20222;-87
2023/09/26 00:37:42;;;;;;;5.43;3.13;;;8.90;99.90;;;;;;4972248;28;20703;-87
2023/09/26 00:40:12;;;;;;;9.88;2.90;;;9.00;99.90;;;;;;4989592;28;20272;-84
2023/09/26 00:42:40;;;;;;;10.48;2.63;;;9.00;99.90;;;;;;4983988;28;20219;-85
2023/09/26 00:45:08;;;;;;;7.80;3.03;;;8.90;99.90;;;;;;4987701;28;20222;-86
2023/09/26 00:47:37;;;;;;;10.32;3.25;;;8.80;99.90;;;;;;4987686;28;20214;-86
2023/09/26 00:50:12;;;;;;;7.65;2.45;;;8.90;99.90;;;;;;4985989;28;20191;-86
2023/09/26 00:52:43;;;;;;;7.28;2.88;;;9.00;99.90;;;;;;4959993;28;20191;-86
2023/09/26 00:55:13;;;;;;;5.05;2.35;;;9.00;99.90;;;;;;4967652;28;20200;-86
2023/09/26 00:57:41;;;;;;;4.40;2.30;;;9.00;99.90;;;;;;4962348;28;20267;-84
2023/09/26 01:00:14;;;;;;;6.63;2.72;;;9.00;99.90;;;;;;4982044;28;20655;-82
2023/09/26 01:02:43;;;;;;;11.95;3.00;;;9.00;99.90;;;;;;4981762;28;20203;-85
2023/09/26 01:05:10;;;;;;;7.32;2.83;;;8.90;99.90;;;;;;4969050;28;20207;-84
2023/09/26 01:07:39;;;;;;;7.95;2.47;;;8.70;99.90;;;;;;4985256;28;20199;-84
2023/09/26 01:10:07;;;;;;;7.97;2.67;;;8.70;99.90;;;;;;4984743;28;20214;-84
2023/09/26 01:12:38;;;;;;;11.05;2.90;;;8.80;99.90;;;;;;4955364;28;20659;-84
2023/09/26 01:15:10;;;;;;;6.90;2.67;;;8.80;99.90;;;;;;4964653;28;20203;-86
2023/09/26 01:17:38;;;;;;;9.75;3.35;;;8.80;99.90;;;;;;4982638;28;20203;-85
2023/09/26 01:20:12;;;;;;;8.98;3.13;;;8.70;99.90;;;;;;4983937;28;20379;-85
2023/09/26 01:22:45;;;;;;;4.63;2.78;;;8.70;99.90;;;;;;4983271;28;20822;-84
2023/09/26 01:25:17;;;;;;;6.05;2.55;;;8.70;99.90;;;;;;4981063;28;20760;-86
2023/09/26 01:27:46;;;;;;;7.35;3.00;;;8.70;99.90;;;;;;4970872;28;20184;-86
2023/09/26 01:30:15;;;;;;;8.48;2.70;;;8.80;99.90;;;;;;4982284;28;20203;-84
2023/09/26 01:32:43;;;;;;;7.82;2.80;;;8.70;99.90;;;;;;4974596;28;20199;-85
2023/09/26 01:35:10;;;;;;;8.32;2.53;;;8.40;99.90;;;;;;4968500;28;20191;-84
2023/09/26 01:37:38;;;;;;;6.70;2.63;;;8.40;99.90;;;;;;4959484;28;20199;-86
2023/09/26 01:40:09;;;;;;;8.48;3.13;;;8.50;99.90;;;;;;4983020;28;20227;-86
2023/09/26 01:42:39;;;;;;;7.75;3.08;;;8.40;99.90;;;;;;4971911;28;20199;-82
2023/09/26 01:45:07;;;;;;;5.38;2.97;;;8.20;99.90;;;;;;4966067;28;20222;-83
2023/09/26 01:47:47;;;;;;;10.23;2.90;;;8.20;99.90;;;;;;4983061;28;20210;-85
2023/09/26 01:50:16;;;;;;;9.50;2.40;;;8.20;99.90;;;;;;4962563;28;20207;-84
2023/09/26 01:52:44;;;;;;;9.02;3.17;;;8.20;99.90;;;;;;4977563;28;20196;-86
2023/09/26 01:55:19;;;;;;;8.35;3.00;;;8.20;99.90;;;;;;4984157;28;20191;-83
2023/09/26 01:57:49;;;;;;;9.70;2.65;;;8.10;99.90;;;;;;4958383;28;20202;-85
2023/09/26 02:00:19;;;;;;;9.93;2.92;;;8.10;99.90;;;;;;4965759;28;20202;-85
2023/09/26 02:02:51;;;;;;;5.05;2.35;;;7.90;99.90;;;;;;4975035;28;20184;-86
2023/09/26 02:05:20;;;;;;;7.65;2.90;;;7.80;99.90;;;;;;4963124;28;20206;-85
2023/09/26 02:07:49;;;;;;;8.80;3.08;;;7.80;99.90;;;;;;4957747;28;20187;-85
2023/09/26 02:10:18;;;;;;;6.63;2.83;;;7.90;99.90;;;;;;4965579;28;20187;-85
2023/09/26 02:12:49;;;;;;;6.47;2.53;;;7.80;99.90;;;;;;4967494;28;20312;-86
2023/09/26 02:15:17;;;;;;;12.48;3.10;;;8.00;99.90;;;;;;4971390;28;20671;-84
2023/09/26 02:17:45;;;;;;;8.57;3.35;;;8.40;99.90;;;;;;4983018;28;20243;-85
2023/09/26 02:20:16;;;;;;;10.07;3.20;;;8.40;99.90;;;;;;4979900;28;20242;-85
2023/09/26 02:22:49;;;;;;;6.85;2.78;;;8.30;99.90;;;;;;4984804;28;20238;-82
2023/09/26 02:25:19;;;;;;;5.15;2.83;;;8.10;99.90;;;;;;4974296;28;20230;-85
2023/09/26 02:27:48;;;;;;;7.18;3.17;;;8.10;99.90;;;;;;4977261;28;20731;-82
2023/09/26 02:30:23;;;;;;;11.80;3.33;;;8.30;99.90;;;;;;4977757;28;20187;-87
2023/09/26 02:32:51;;;;;;;7.75;2.70;;;8.30;99.90;;;;;;4980082;28;20294;-85
2023/09/26 02:35:22;;;;;;;5.68;2.85;;;8.20;99.90;;;;;;4977686;28;20195;-85
2023/09/26 02:37:49;;;;;;;9.02;3.13;;;8.30;99.90;;;;;;4980555;28;20198;-86
2023/09/26 02:40:17;;;;;;;9.20;3.03;;;8.40;99.90;;;;;;4980508;28;20202;-84
2023/09/26 02:42:45;;;;;;;7.00;2.75;;;8.20;99.90;;;;;;4981593;28;20195;-86
2023/09/26 02:45:14;;;;;;;7.50;3.15;;;8.20;99.90;;;;;;4982241;28;20219;-86
2023/09/26 02:47:43;;;;;;;6.10;2.67;;;8.20;99.90;;;;;;4963261;28;20184;-83
2023/09/26 02:50:11;;;;;;;8.65;3.28;;;8.20;99.90;;;;;;4962460;28;20716;-85
2023/09/26 02:52:42;;;;;;;7.07;3.30;;;8.20;99.90;;;;;;4963452;28;20897;-86
2023/09/26 02:55:10;;;;;;;6.63;3.40;;;8.20;99.90;;;;;;4978825;28;20713;-85
2023/09/26 02:57:38;;;;;;;11.60;3.38;;;8.10;99.90;;;;;;4980315;28;20231;-86
2023/09/26 03:00:17;;;;;;;7.40;3.42;;;8.20;99.90;;;;;;4980285;28;20202;-86
2023/09/26 03:02:46;;;;;;;6.57;3.13;;;8.30;99.90;;;;;;4963518;28;20200;-85
2023/09/26 03:05:16;;;;;;;9.13;3.70;;;8.30;99.90;;;;;;4981385;28;20204;-86
2023/09/26 03:07:48;;;;;;;10.20;3.50;;;8.30;99.90;;;;;;4960312;28;20196;-85
2023/09/26 03:10:16;;;;;;;9.18;3.63;;;8.00;99.90;;;;;;4982110;28;20266;-83
2023/09/26 03:12:45;;;;;;;7.20;3.22;;;7.70;99.90;;;;;;4961480;28;20391;-84
2023/09/26 03:15:13;;;;;;;8.38;3.30;;;7.60;99.90;;;;;;4990865;28;20585;-85
2023/09/26 03:17:40;;;;;;;8.45;3.47;;;7.80;99.90;;;;;;4971057;28;20246;-82
2023/09/26 03:20:10;;;;;;;9.18;3.45;;;7.80;99.90;;;;;;4959417;28;20255;-84
2023/09/26 03:22:37;;;;;;;7.40;3.40;;;7.70;99.90;;;;;;4946726;29;20280;-84
2023/09/26 03:25:06;;;;;;;9.68;3.20;;;7.90;99.90;;;;;;4941863;29;20220;-85
2023/09/26 03:27:33;;;;;;;6.25;3.03;;;7.70;99.90;;;;;;4940068;29;20650;-84
2023/09/26 03:30:01;;;;;;;8.15;3.20;;;7.70;99.90;;;;;;4941178;29;20205;-84
2023/09/26 03:32:29;;;;;;;7.00;3.20;;;7.80;99.90;;;;;;4940326;29;20555;-85
2023/09/26 03:34:57;;;;;;;7.05;3.78;;;7.70;99.90;;;;;;4944843;28;20185;-86
2023/09/26 03:37:25;;;;;;;6.13;3.35;;;7.60;99.90;;;;;;4940763;29;20202;-87
2023/09/26 03:39:52;;;;;;;7.47;3.10;;;7.60;99.90;;;;;;4941718;29;20192;-85
2023/09/26 03:42:20;;;;;;;9.23;3.00;;;7.90;99.90;;;;;;4946294;29;20707;-82
2023/09/26 03:44:48;;;;;;;8.90;3.00;;;7.90;99.90;;;;;;4941860;29;20193;-84
2023/09/26 03:47:15;;;;;;;6.65;3.30;;;7.80;99.90;;;;;;4942292;29;20692;-83
2023/09/26 03:49:43;;;;;;;7.97;3.80;;;7.60;99.90;;;;;;4939350;29;20196;-86
2023/09/26 03:52:10;;;;;;;9.63;2.90;;;7.70;99.90;;;;;;4945480;29;20188;-83
2023/09/26 03:54:38;;;;;;;8.45;2.75;;;7.80;99.90;;;;;;4939521;28;20560;-84
2023/09/26 03:57:06;;;;;;;8.32;3.40;;;7.90;99.90;;;;;;4941623;29;20193;-86
2023/09/26 03:59:33;;;;;;;7.97;2.75;;;8.00;99.90;;;;;;4943364;29;20585;-84
2023/09/26 04:02:01;;;;;;;7.22;3.33;;;7.70;99.90;;;;;;4940357;29;20220;-84
2023/09/26 04:04:31;;;;;;;11.00;3.40;;;7.60;99.90;;;;;;4942320;29;20211;-84
2023/09/26 04:06:59;;;;;;;10.23;3.70;;;7.70;99.90;;;;;;4943151;29;20299;-86
2023/09/26 04:09:27;;;;;;;15.68;3.80;;;7.60;99.90;;;;;;4939659;28;20205;-85
2023/09/26 04:11:55;;;;;;;10.65;3.00;;;7.50;99.90;;;;;;4947355;29;20285;-84
2023/09/26 04:14:23;;;;;;;7.32;3.40;;;7.70;99.90;;;;;;4939152;29;20196;-84
2023/09/26 04:16:51;;;;;;;10.27;3.40;;;7.90;99.90;;;;;;4941569;29;20232;-84
2023/09/26 04:19:19;;;;;;;8.32;3.47;;;7.80;99.90;;;;;;4942204;28;20245;-85
2023/09/26 04:21:47;;;;;;;6.22;3.13;;;7.90;99.90;;;;;;4960351;28;20199;-85
2023/09/26 04:24:15;;;;;;;6.35;2.80;;;7.80;99.90;;;;;;4956922;28;20307;-84
2023/09/26 04:26:43;;;;;;;10.25;3.55;;;7.80;99.90;;;;;;4979562;28;20678;-85
2023/09/26 04:29:11;;;;;;;7.57;3.05;;;7.90;99.90;;;;;;4969947;28;20246;-86
2023/09/26 04:31:38;;;;;;;6.93;2.72;;;8.00;99.90;;;;;;4976394;28;20788;-84
2023/09/26 04:34:06;;;;;;;8.00;2.85;;;8.00;99.90;;;;;;4984822;28;20191;-84
2023/09/26 04:36:34;;;;;;;7.57;3.65;;;8.00;99.90;;;;;;4980280;28;20204;-85
2023/09/26 04:39:02;;;;;;;9.27;3.60;;;8.10;99.90;;;;;;4974539;28;20192;-84
2023/09/26 04:41:30;;;;;;;7.35;2.80;;;7.90;99.90;;;;;;4979108;28;20267;-85
2023/09/26 04:43:57;;;;;;;6.03;3.03;;;7.90;99.90;;;;;;4980855;28;20215;-84
2023/09/26 04:46:25;;;;;;;10.73;3.78;;;7.90;99.90;;;;;;4966749;28;20207;-85
2023/09/26 04:48:53;;;;;;;7.63;3.63;;;7.90;99.90;;;;;;4984109;28;20189;-85
2023/09/26 04:51:21;;;;;;;7.47;3.08;;;7.80;99.90;;;;;;4984844;28;20214;-85
2023/09/26 04:53:49;;;;;;;5.53;2.78;;;7.90;99.90;;;;;;4958203;28;20188;-85
2023/09/26 04:56:17;;;;;;;8.80;3.58;;;7.90;99.90;;;;;;4968069;28;20208;-85
2023/09/26 04:58:45;;;;;;;9.50;3.20;;;8.00;99.90;;;;;;4985085;28;20595;-85
2023/09/26 05:01:14;;;;;;;9.73;3.50;;;8.00;99.90;;;;;;4967960;28;20191;-84
2023/09/26 05:03:43;;;;;;;5.57;2.45;;;8.00;99.90;;;;;;4984030;28;20199;-83
2023/09/26 05:06:12;;;;;;;6.18;3.25;;;8.10;99.90;;;;;;4965547;28;20203;-86
2023/09/26 05:08:40;;;;;;;6.05;2.70;;;8.10;99.90;;;;;;4982671;28;20242;-84
2023/09/26 05:11:14;;;;;;;5.72;2.53;;;8.20;99.90;;;;;;4954843;28;20275;-85
2023/09/26 05:13:43;;;;;;;4.75;2.83;;;8.20;99.90;;;;;;4978695;28;20182;-84
2023/09/26 05:16:12;;;;;;;8.80;3.08;;;8.10;99.90;;;;;;4951171;28;20678;-85
2023/09/26 05:18:40;;;;;;;9.23;3.20;;;8.20;99.90;;;;;;4983365;28;20196;-84
2023/09/26 05:21:09;;;;;;;6.47;2.60;;;8.20;99.90;;;;;;4982361;28;20238;-85
2023/09/26 05:23:36;;;;;;;6.97;3.22;;;8.20;99.90;;;;;;4980174;28;20195;-85
2023/09/26 05:26:08;;;;;;;5.50;2.50;;;8.20;99.90;;;;;;4983300;28;20212;-87
2023/09/26 05:28:36;;;;;;;6.22;2.35;;;8.20;99.90;;;;;;4980388;28;20184;-85
2023/09/26 05:31:05;;;;;;;6.60;2.58;;;8.30;99.90;;;;;;4984404;28;20678;-85
2023/09/26 05:33:33;;;;;;;6.50;2.92;;;8.40;99.90;;;;;;4977251;28;20184;-85
2023/09/26 05:36:01;;;;;;;5.50;2.70;;;8.40;99.90;;;;;;4985279;28;20193;-85
2023/09/26 05:38:29;;;;;;;5.93;2.60;;;8.40;99.90;;;;;;4982324;28;20203;-83
2023/09/26 05:40:56;;;;;;;6.20;3.05;;;8.40;99.90;;;;;;4978891;28;20267;-84
2023/09/26 05:43:24;;;;;;;6.07;2.10;;;8.50;99.90;;;;;;4982840;28;20199;-83
2023/09/26 05:45:52;;;;;;;7.50;2.30;;;8.50;99.90;;;;;;4981169;28;20207;-87
2023/09/26 05:48:21;;;;;;;7.65;2.65;;;8.60;99.90;;;;;;4979650;28;20196;-83
2023/09/26 05:50:48;;;;;;;8.52;2.65;;;8.70;99.90;;;;;;4982573;28;20195;-85
2023/09/26 05:53:17;;;;;;;5.72;2.83;;;8.70;99.90;;;;;;4981600;28;20197;-85
2023/09/26 05:55:45;;;;;;;5.95;2.72;;;8.80;99.90;;;;;;4985935;28;20253;-84
2023/09/26 05:58:13;;;;;;;6.80;2.58;;;8.90;99.90;;;;;;4981215;28;20198;-86
2023/09/26 06:00:40;;;;;;;8.10;3.03;;;8.90;99.90;;;;;;4982963;28;20666;-85
2023/09/26 06:03:08;;;;;;;6.45;2.45;;;9.00;99.90;;;;;;4981684;28;20270;-85
2023/09/26 06:05:37;;;;;;;8.98;3.13;;;9.00;99.90;;;;;;4981747;28;20200;-84
2023/09/26 06:08:05;;;;;;;7.65;2.60;;;9.10;99.90;;;;;;4966992;28;20212;-85
2023/09/26 06:10:33;;;;;;;10.80;3.13;;;9.10;99.90;;;;;;4982269;28;20184;-86
2023/09/26 06:13:01;;;;;;;6.43;2.80;;;9.20;99.90;;;;;;4966802;28;20219;-86
2023/09/26 06:15:28;;;;;;;7.18;3.13;;;9.20;99.90;;;;;;4983648;28;20198;-84
2023/09/26 06:17:59;;;;;;;6.45;2.50;;;9.30;99.90;;;;;;4982091;28;20183;-85
2023/09/26 06:20:31;;;;;;;9.10;3.03;;;9.30;99.90;;;;;;4973184;28;20219;-86
2023/09/26 06:22:59;;;;;;;5.70;2.85;;;9.40;99.90;;;;;;4970391;28;20192;-85
2023/09/26 06:25:27;;;;;;;6.57;2.83;;;9.50;99.90;;;;;;4986180;28;20205;-84
2023/09/26 06:28:02;;;;;;;7.88;2.97;;;9.50;99.90;;;;;;4983033;28;20221;-85
2023/09/26 06:30:30;;;;;;;10.82;2.92;;;9.50;99.90;;;;;;4964941;28;20184;-85
2023/09/26 06:32:58;;;;;;;6.38;2.72;;;9.60;99.90;;;;;;4966853;28;20935;-87
2023/09/26 06:35:26;;;;;;;7.18;2.88;;;9.60;99.90;;;;;;4981079;28;20184;-86
2023/09/26 06:37:53;;;;;;;8.57;3.10;;;9.70;99.90;;;;;;4982272;28;20267;-84
2023/09/26 06:40:21;;;;;;;9.75;3.65;;;9.70;99.90;;;;;;4984349;28;20184;-86
2023/09/26 06:42:49;;;;;;;11.10;3.20;;;9.80;99.90;;;;;;4983163;28;20254;-86
2023/09/26 06:45:17;;;;;;;7.82;3.28;;;9.80;99.90;;;;;;4967635;28;20191;-84
2023/09/26 06:47:44;;;;;;;6.15;2.72;;;9.80;99.90;;;;;;4954532;28;20212;-84
2023/09/26 06:50:12;;;;;;;9.70;3.42;;;9.90;99.90;;;;;;4983079;28;20247;-84
2023/09/26 06:52:43;;;;;;;5.57;2.88;;;9.90;99.90;;;;;;4957556;28;20674;-86
2023/09/26 06:55:11;;;;;;;9.55;3.50;;;10.00;99.90;;;;;;4972994;28;20195;-84
2023/09/26 06:57:39;;;;;;;7.15;3.35;;;10.10;99.90;;;;;;4976033;28;20242;-85
2023/09/26 07:00:13;;;;;;;7.40;3.80;;;10.20;99.90;;;;;;4979173;28;20247;-86
2023/09/26 07:02:41;;;;;;;7.57;4.25;;;10.20;99.90;;;;;;4981766;28;20211;-85
2023/09/26 07:05:09;;;;;;;10.48;4.78;;;10.30;99.90;;;;;;4982472;28;20191;-84
2023/09/26 07:07:38;;;;;;;13.27;5.07;;;10.40;99.90;;;;;;4982367;28;20211;-85
2023/09/26 07:10:07;;;;;;;11.45;5.20;;;10.50;99.90;;;;;;4979015;28;20188;-84
2023/09/26 07:12:34;;;;;;;11.20;5.07;;;10.50;99.90;;;;;;4979469;28;20720;-84
2023/09/26 07:15:02;;;;;;;12.48;6.07;;;10.60;99.90;;;;;;4980019;28;20197;-84
2023/09/26 07:17:30;;;;;;;11.13;6.38;;;10.60;99.90;;;;;;4982954;28;20192;-84
2023/09/26 07:20:00;;;;;;;10.55;5.57;;;10.70;99.90;;;;;;4976514;28;20341;-86
2023/09/26 07:22:28;;;;;;;14.68;6.15;;;10.80;99.90;;;;;;4976391;28;20199;-83
2023/09/26 07:24:57;;;;;;;13.77;5.97;;;10.80;99.90;;;;;;4966366;28;20223;-86
2023/09/26 07:27:25;;;;;;;11.35;7.32;;;10.90;99.90;;;;;;4978192;28;20208;-84
2023/09/26 07:29:53;;;;;;;12.07;5.93;;;10.90;99.90;;;;;;4982442;28;20180;-85
2023/09/26 07:32:21;;;;;;;14.68;7.10;;;11.00;99.90;;;;;;4982428;28;20187;-86
2023/09/26 07:34:49;;;;;;;13.38;5.80;;;11.10;99.90;;;;;;4981021;28;20188;-84
2023/09/26 07:37:16;;;;;;;8.52;5.20;;;11.20;99.90;;;;;;4979157;28;20730;-81
2023/09/26 07:39:49;;;;;;;10.02;4.50;;;11.20;99.90;;;;;;4980322;28;20310;-84
2023/09/26 07:42:17;;;;;;;8.25;4.32;;;11.20;99.90;;;;;;4970485;28;20694;-84
2023/09/26 07:44:44;;;;;;;8.82;5.00;;;11.40;99.90;;;;;;4977926;28;20199;-85
2023/09/26 07:47:12;;;;;;;10.48;4.72;;;11.40;99.90;;;;;;4975045;28;20208;-84
2023/09/26 07:49:40;;;;;;;9.43;4.18;;;11.40;99.90;;;;;;4961888;28;20192;-84
2023/09/26 07:52:08;;;;;;;10.98;3.90;;;11.60;99.90;;;;;;4981091;28;20265;-85
2023/09/26 07:54:36;;;;;;;9.27;4.07;;;11.60;99.90;;;;;;4953735;28;20311;-84
2023/09/26 07:57:04;;;;;;;9.40;4.55;;;11.60;99.90;;;;;;4983999;28;20202;-85
2023/09/26 07:59:31;;;;;;;10.77;4.90;;;11.70;99.90;;;;;;4984098;28;20184;-84
2023/09/26 08:01:59;;;;;;;10.65;4.38;;;11.80;99.90;;;;;;4962721;28;20196;-85
2023/09/26 08:04:27;;;;;;;10.15;4.30;;;11.80;99.90;;;;;;4953588;28;20546;-84
2023/09/26 08:06:55;;;;;;;9.77;4.35;;;11.90;99.90;;;;;;4970493;28;20204;-85
2023/09/26 08:09:22;;;;;;;9.57;3.88;;;12.00;99.90;;;;;;4976417;28;20655;-84
2023/09/26 08:11:50;;;;;;;9.00;4.40;;;12.10;99.90;;;;;;4971294;28;20655;-83
2023/09/26 08:14:18;;;;;;;10.65;4.30;;;12.00;99.90;;;;;;4963159;28;20227;-85
2023/09/26 08:16:47;;;;;;;8.15;4.03;;;12.00;99.90;;;;;;4984717;28;20202;-84
2023/09/26 08:19:15;;;;;;;12.90;4.45;;;12.10;99.90;;;;;;4985315;28;20297;-83
2023/09/26 08:21:44;;;;;;;11.02;3.70;;;12.20;99.90;;;;;;4987979;28;20741;-85
2023/09/26 08:24:12;;;;;;;7.97;3.92;;;12.30;99.90;;;;;;4966064;28;20226;-84
2023/09/26 08:26:40;;;;;;;7.55;4.40;;;12.20;99.90;;;;;;4983433;28;20218;-86
2023/09/26 08:29:07;;;;;;;12.20;4.50;;;12.40;99.90;;;;;;4973617;28;20192;-84
2023/09/26 08:31:35;;;;;;;7.75;4.05;;;12.60;99.90;;;;;;4985340;28;20192;-87
2023/09/26 08:34:03;;;;;;;8.65;4.25;;;12.70;99.90;;;;;;4985501;28;20194;-84
2023/09/26 08:36:32;;;;;;;11.90;5.22;;;12.80;99.90;;;;;;4984094;28;20274;-85
2023/09/26 08:38:59;;;;;;;8.27;4.20;;;12.80;99.90;;;;;;4983951;28;20214;-85
2023/09/26 08:41:29;;;;;;;7.35;4.18;;;12.80;99.90;;;;;;4965650;28;20950;-85
2023/09/26 08:43:58;;;;;;;7.35;4.03;;;12.90;99.90;;;;;;4982338;28;20246;-84
2023/09/26 08:46:25;;;;;;;10.70;4.78;;;12.90;99.90;;;;;;4982689;28;20199;-85
2023/09/26 08:48:55;;;;;;;9.20;4.25;;;12.80;99.90;;;;;;4982710;28;20180;-85
2023/09/26 08:51:25;;;;;;;12.68;4.78;;;12.90;99.90;;;;;;4983054;28;20238;-83
2023/09/26 08:53:53;;;;;;;9.27;4.07;;;13.20;99.90;;;;;;4981921;28;20773;-84
2023/09/26 08:56:20;;;;;;;10.40;4.00;;;13.30;99.90;;;;;;4984453;28;20666;-84
2023/09/26 08:58:51;;;;;;;8.57;3.88;;;13.40;99.90;;;;;;4979178;28;20745;-83
2023/09/26 09:01:19;;;;;;;11.20;4.07;;;13.40;99.90;;;;;;4968329;28;20753;-84
2023/09/26 09:03:47;;;;;;;10.30;4.10;;;13.40;99.90;;;;;;4976177;28;20195;-85
2023/09/26 09:06:15;;;;;;;8.73;3.47;;;13.40;99.90;;;;;;4974490;28;20187;-81
2023/09/26 09:08:42;;;;;;;10.10;4.28;;;13.50;99.90;;;;;;4980965;28;20521;-83
2023/09/26 09:11:11;;;;;;;9.07;3.30;;;13.70;99.90;;;;;;4973818;28;20313;-84
2023/09/26 09:13:40;;;;;;;8.00;3.30;;;13.70;99.90;;;;;;4965502;28;20287;-83
2023/09/26 09:16:18;;;;;;;5.47;3.13;;;13.80;99.90;;;;;;4966335;28;20204;-83
2023/09/26 09:18:59;;;;;;;7.20;3.38;;;14.00;99.90;;;;;;4966545;28;20238;-84
2023/09/26 09:21:32;;;;;;;8.63;3.35;;;14.00;99.90;;;;;;4989585;28;20275;-83
2023/09/26 09:24:06;;;;;;;6.82;2.95;;;14.00;99.90;;;;;;4983570;28;20290;-84
2023/09/26 09:26:36;;;;;;;5.85;2.53;;;14.00;99.90;;;;;;4982688;28;20193;-85
2023/09/26 09:29:21;;;;;;;7.78;2.67;;;14.00;99.90;;;;;;4982135;28;20191;-84
2023/09/26 09:31:50;;;;;;;9.13;3.15;;;14.10;99.90;;;;;;4960363;28;20188;-84
2023/09/26 09:34:20;;;;;;;6.13;3.03;;;14.20;99.90;;;;;;4967030;28;20211;-83
2023/09/26 09:36:48;;;;;;;6.25;2.55;;;14.20;99.90;;;;;;4984365;28;20214;-84
2023/09/26 09:39:19;;;;;;;8.18;2.95;;;14.30;99.90;;;;;;4967788;28;20203;-84
2023/09/26 09:41:48;;;;;;;4.57;2.55;;;14.30;99.90;;;;;;4986487;28;20646;-85
2023/09/26 09:44:16;;;;;;;11.80;2.53;;;14.50;99.90;;;;;;4974557;28;20294;-86
2023/09/26 09:46:45;;;;;;;9.52;2.90;;;14.40;99.90;;;;;;4978814;28;20671;-85
2023/09/26 09:49:14;;;;;;;6.10;2.45;;;14.40;99.90;;;;;;4984973;28;20191;-84
2023/09/26 09:51:43;;;;;;;6.63;2.60;;;14.40;99.90;;;;;;4971480;28;20716;-84
2023/09/26 09:54:17;;;;;;;7.30;2.58;;;14.50;99.90;;;;;;4957684;28;20195;-84
2023/09/26 09:56:52;;;;;;;6.38;2.65;;;14.50;99.90;;;;;;4956915;28;20200;-83
2023/09/26 09:59:24;;;;;;;6.25;2.83;;;14.60;99.90;;;;;;4982825;28;20193;-83
2023/09/26 10:01:54;;;;;;;9.40;2.78;;;14.80;99.90;;;;;;4968918;28;20266;-84
2023/09/26 10:04:24;;;;;;;7.60;2.70;;;14.90;99.90;;;;;;4983939;28;20187;-85
2023/09/26 10:06:53;;;;;;;4.93;2.72;;;15.00;99.90;;;;;;4955604;28;20210;-86
2023/09/26 10:09:22;;;;;;;7.10;2.60;;;15.20;99.90;;;;;;4966293;28;20191;-83
2023/09/26 10:11:53;;;;;;;5.05;2.28;;;15.10;99.90;;;;;;4978270;28;20186;-85
2023/09/26 10:14:22;;;;;;;7.68;3.15;;;15.30;99.90;;;;;;4980451;28;20196;-85
2023/09/26 10:16:53;;;;;;;6.57;2.25;;;15.30;99.90;;;;;;4981173;28;20187;-86
2023/09/26 10:19:23;;;;;;;4.63;2.72;;;15.40;99.90;;;;;;4978666;28;20219;-85
2023/09/26 10:22:21;;;;;;;10.18;2.88;;;15.40;99.90;;;;;;4978560;28;20270;-84
2023/09/26 10:24:53;;;;;;;4.93;1.98;;;15.40;99.90;;;;;;4979160;28;20187;-85
2023/09/26 10:27:46;;;;;;;8.20;2.75;;;15.40;99.90;;;;;;4979272;28;20682;-82
2023/09/26 10:30:28;;;;;;;6.68;2.38;;;15.40;99.90;;;;;;4978614;28;20663;-84
2023/09/26 10:32:56;;;;;;;7.13;2.38;;;15.60;99.90;;;;;;4978508;28;20195;-83
2023/09/26 10:35:28;;;;;;;6.38;2.78;;;15.50;99.90;;;;;;4974856;28;20206;-83
2023/09/26 10:38:16;;;;;;;6.07;2.38;;;15.60;99.90;;;;;;4981738;28;20710;-81
2023/09/26 10:40:48;;;;;;;6.50;2.38;;;15.80;99.90;;;;;;4975858;28;20191;-83
2023/09/26 10:43:15;;;;;;;4.20;2.45;;;15.90;99.90;;;;;;4976433;28;20698;-83
2023/09/26 10:45:47;;;;;;;5.22;2.53;;;15.90;99.90;;;;;;4978549;28;20514;-85
2023/09/26 10:48:20;;;;;;;7.32;2.50;;;15.90;99.90;;;;;;4979043;28;20965;-85
2023/09/26 10:51:08;;;;;;;7.47;2.78;;;16.20;99.90;;;;;;4962095;28;20321;-84
2023/09/26 10:53:36;;;;;;;5.90;2.45;;;16.20;99.90;;;;;;4966000;28;20549;-85
2023/09/26 10:56:04;;;;;;;7.32;2.20;;;16.40;99.90;;;;;;4964478;28;20274;-85
2023/09/26 10:58:32;;;;;;;7.32;2.20;;;16.60;99.90;;;;;;4963483;28;20191;-83
2023/09/26 11:01:00;;;;;;;8.45;2.78;;;16.50;99.90;;;;;;4976109;28;20188;-85
2023/09/26 11:03:31;;;;;;;4.45;2.40;;;16.60;99.90;;;;;;4981488;28;20286;-84
2023/09/26 11:05:59;;;;;;;6.47;2.17;;;16.50;99.90;;;;;;4980787;28;20191;-85
2023/09/26 11:08:28;;;;;;;6.53;2.55;;;16.70;99.90;;;;;;4980956;28;20286;-83
2023/09/26 11:10:57;;;;;;;6.28;2.40;;;16.70;99.90;;;;;;4973516;28;20183;-85
2023/09/26 11:13:25;;;;;;;3.92;2.00;;;16.80;99.90;;;;;;4983408;28;20211;-83
2023/09/26 11:15:54;;;;;;;5.28;2.50;;;16.90;99.90;;;;;;4981599;28;20618;-85
2023/09/26 11:18:22;;;;;;;5.93;2.63;;;16.80;99.90;;;;;;4979008;28;20191;-83
2023/09/26 11:20:51;;;;;;;5.25;2.25;;;17.10;99.90;;;;;;4959794;28;20242;-83
2023/09/26 11:23:39;;;;;;;6.13;2.35;;;17.10;99.90;;;;;;4966995;28;20203;-84
2023/09/26 11:26:08;;;;;;;4.72;2.47;;;17.10;99.90;;;;;;4982247;28;20746;-85
2023/09/26 11:28:36;;;;;;;5.22;2.55;;;17.00;99.90;;;;;;4981978;28;20282;-85
2023/09/26 11:31:04;;;;;;;6.32;2.50;;;17.10;99.90;;;;;;4973248;28;20192;-84
2023/09/26 11:33:34;;;;;;;5.75;2.33;;;17.20;99.90;;;;;;4959128;28;20557;-83
2023/09/26 11:36:03;;;;;;;6.35;2.40;;;17.50;99.90;;;;;;4960510;28;20191;-84
2023/09/26 11:38:31;;;;;;;5.13;2.53;;;17.80;99.90;;;;;;4981684;28;20198;-83
2023/09/26 11:41:00;;;;;;;5.93;2.28;;;17.70;99.90;;;;;;4979709;28;20650;-84
2023/09/26 11:43:39;;;;;;;5.05;2.28;;;17.70;99.90;;;;;;4973383;28;20207;-84
2023/09/26 11:46:08;;;;;;;5.13;2.00;;;17.50;99.90;;;;;;4963433;28;20199;-84
2023/09/26 11:48:36;;;;;;;5.05;2.22;;;17.50;99.90;;;;;;4979919;28;20199;-85
2023/09/26 11:51:05;;;;;;;5.18;2.40;;;17.40;99.90;;;;;;4979785;28;20269;-84
2023/09/26 11:53:33;;;;;;;3.97;2.33;;;17.30;99.90;;;;;;4981567;28;20215;-85
2023/09/26 11:56:00;;;;;;;6.45;2.53;;;17.20;99.90;;;;;;4976476;28;20188;-85
2023/09/26 11:58:28;;;;;;;5.00;2.10;;;17.10;99.90;;;;;;4987239;28;20230;-83
2023/09/26 12:00:56;;;;;;;8.50;2.13;;;17.10;99.90;;;;;;4975411;28;20251;-86
2023/09/26 12:03:23;;;;;;;5.03;2.20;;;17.10;99.90;;;;;;4985020;28;20187;-84
2023/09/26 12:05:51;;;;;;;4.55;2.35;;;17.20;99.90;;;;;;4980947;28;20722;-83
2023/09/26 12:08:19;;;;;;;10.27;2.30;;;17.10;99.90;;;;;;4980263;28;20246;-83
2023/09/26 12:10:47;;;;;;;5.88;2.00;;;17.10;99.90;;;;;;4981856;28;20791;-84
2023/09/26 12:13:14;;;;;;;5.18;1.80;;;17.10;99.90;;;;;;4981633;28;20187;-85
2023/09/26 12:15:42;;;;;;;9.60;2.55;;;17.00;99.90;;;;;;4980741;28;20282;-84
2023/09/26 12:18:10;;;;;;;5.30;2.15;;;17.00;99.90;;;;;;4973642;28;20207;-84
2023/09/26 12:20:38;;;;;;;5.45;2.08;;;17.00;99.90;;;;;;4970259;28;20227;-85
2023/09/26 12:23:08;;;;;;;4.93;2.30;;;17.10;99.90;;;;;;4981953;28;20666;-84
2023/09/26 12:25:36;;;;;;;4.70;2.08;;;17.10;99.90;;;;;;4980808;28;20191;-84
2023/09/26 12:28:04;;;;;;;5.85;2.38;;;16.90;99.90;;;;;;4962552;28;20211;-84
2023/09/26 12:30:33;;;;;;;7.35;2.80;;;17.00;99.90;;;;;;4957229;28;20192;-86
2023/09/26 12:33:00;;;;;;;8.88;2.65;;;17.30;99.90;;;;;;4970862;28;20469;-85
2023/09/26 12:35:28;;;;;;;6.97;2.30;;;17.30;99.90;;;;;;4985314;28;20190;-83
2023/09/26 12:37:56;;;;;;;8.15;2.67;;;17.30;99.90;;;;;;4970320;28;20223;-84
2023/09/26 12:40:25;;;;;;;4.30;2.35;;;17.20;99.90;;;;;;4981561;28;20207;-83
2023/09/26 12:42:52;;;;;;;7.45;2.80;;;17.10;99.90;;;;;;4975761;28;20280;-84
2023/09/26 12:45:20;;;;;;;4.68;2.38;;;17.30;99.90;;;;;;4982055;28;20560;-83
2023/09/26 12:47:48;;;;;;;5.57;2.55;;;17.60;99.90;;;;;;4963880;28;20863;-84
2023/09/26 12:50:16;;;;;;;6.30;2.50;;;17.90;99.90;;;;;;4986634;28;20188;-85
2023/09/26 12:52:44;;;;;;;4.85;2.50;;;18.10;99.90;;;;;;4983855;28;20184;-84
2023/09/26 12:55:13;;;;;;;9.40;2.35;;;18.20;99.90;;;;;;4983357;28;20188;-85
2023/09/26 12:57:41;;;;;;;7.45;2.63;;;18.40;99.90;;;;;;4979200;28;20192;-81
2023/09/26 13:00:12;;;;;;;5.30;2.65;;;18.50;99.90;;;;;;4961893;28;20288;-82